sensor_id;sensor_type;location;lat;lon;timestamp;P1;durP1;ratioP1;P2;durP2;ratioP2
9270;SDS011;4673;53.458;9.940;2023-04-23T00:02:19;4.32;;;4.32;;
9270;SDS011;4673;53.458;9.940;2023-04-23T00:04:50;4.43;;;4.43;;
9270;SDS011;4673;53.458;9.940;2023-04-23T00:07:19;4.75;;;4.75;;
9270;SDS011;4673;53.458;9.940;2023-04-23T00:09:51;5.38;;;5.38;;
9270;SDS011;4673;53.458;9.940;2023-04-23T00:12:21;4.80;;;4.80;;
9270;SDS011;4673;53.458;9.940;2023-04-23T00:14:47;4.80;;;4.80;;
9270;SDS011;4673;53.458;9.940;2023-04-23T00:17:12;5.18;;;5.18;;
9270;SDS011;4673;53.458;9.940;2023-04-23T00:19:38;4.75;;;4.75;;
9270;SDS011;4673;53.458;9.940;2023-04-23T00:22:03;5.40;;;5.40;;
9270;SDS011;4673;53.458;9.940;2023-04-23T00:24:30;5.25;;;5.25;;
9270;SDS011;4673;53.458;9.940;2023-04-23T00:26:58;5.80;;;5.80;;
9270;SDS011;4673;53.458;9.940;2023-04-23T00:29:23;5.10;;;5.10;;
9270;SDS011;4673;53.458;9.940;2023-04-23T00:31:49;5.55;;;5.55;;
9270;SDS011;4673;53.458;9.940;2023-04-23T00:34:14;5.60;;;5.60;;
9270;SDS011;4673;53.458;9.940;2023-04-23T00:36:40;6.13;;;6.13;;
9270;SDS011;4673;53.458;9.940;2023-04-23T00:39:06;6.60;;;6.60;;
9270;SDS011;4673;53.458;9.940;2023-04-23T00:41:31;6.30;;;6.30;;
9270;SDS011;4673;53.458;9.940;2023-04-23T00:43:58;7.30;;;7.30;;
9270;SDS011;4673;53.458;9.940;2023-04-23T00:46:24;7.45;;;7.45;;
9270;SDS011;4673;53.458;9.940;2023-04-23T00:48:51;6.82;;;6.82;;
9270;SDS011;4673;53.458;9.940;2023-04-23T00:51:17;7.47;;;7.47;;
9270;SDS011;4673;53.458;9.940;2023-04-23T00:53:43;7.07;;;7.07;;
9270;SDS011;4673;53.458;9.940;2023-04-23T00:56:08;7.35;;;7.35;;
9270;SDS011;4673;53.458;9.940;2023-04-23T00:58:35;6.53;;;6.53;;
9270;SDS011;4673;53.458;9.940;2023-04-23T01:01:01;6.57;;;6.57;;
9270;SDS011;4673;53.458;9.940;2023-04-23T01:03:29;7.35;;;7.35;;
9270;SDS011;4673;53.458;9.940;2023-04-23T01:05:56;6.78;;;6.78;;
9270;SDS011;4673;53.458;9.940;2023-04-23T01:08:22;6.60;;;6.60;;
9270;SDS011;4673;53.458;9.940;2023-04-23T01:10:49;6.60;;;6.60;;
9270;SDS011;4673;53.458;9.940;2023-04-23T01:13:17;6.65;;;6.65;;
9270;SDS011;4673;53.458;9.940;2023-04-23T01:15:43;6.00;;;6.00;;
9270;SDS011;4673;53.458;9.940;2023-04-23T01:18:09;5.57;;;5.57;;
9270;SDS011;4673;53.458;9.940;2023-04-23T01:20:35;7.18;;;7.18;;
9270;SDS011;4673;53.458;9.940;2023-04-23T01:23:02;6.70;;;6.70;;
9270;SDS011;4673;53.458;9.940;2023-04-23T01:25:28;6.22;;;6.22;;
9270;SDS011;4673;53.458;9.940;2023-04-23T01:27:54;7.65;;;7.65;;
9270;SDS011;4673;53.458;9.940;2023-04-23T01:30:21;6.35;;;6.35;;
9270;SDS011;4673;53.458;9.940;2023-04-23T01:32:47;7.30;;;7.30;;
9270;SDS011;4673;53.458;9.940;2023-04-23T01:35:14;6.45;;;6.45;;
9270;SDS011;4673;53.458;9.940;2023-04-23T01:37:40;7.13;;;7.13;;
9270;SDS011;4673;53.458;9.940;2023-04-23T01:40:07;6.63;;;6.63;;
9270;SDS011;4673;53.458;9.940;2023-04-23T01:42:34;6.95;;;6.95;;
9270;SDS011;4673;53.458;9.940;2023-04-23T01:45:00;7.15;;;7.15;;
9270;SDS011;4673;53.458;9.940;2023-04-23T01:47:27;7.10;;;7.10;;
9270;SDS011;4673;53.458;9.940;2023-04-23T01:49:53;8.45;;;8.45;;
9270;SDS011;4673;53.458;9.940;2023-04-23T01:52:19;8.07;;;8.07;;
9270;SDS011;4673;53.458;9.940;2023-04-23T01:54:44;8.68;;;8.68;;
9270;SDS011;4673;53.458;9.940;2023-04-23T01:57:10;8.63;;;8.63;;
9270;SDS011;4673;53.458;9.940;2023-04-23T01:59:36;8.15;;;8.15;;
9270;SDS011;4673;53.458;9.940;2023-04-23T02:02:03;8.13;;;8.13;;
9270;SDS011;4673;53.458;9.940;2023-04-23T02:04:29;11.15;;;11.15;;
9270;SDS011;4673;53.458;9.940;2023-04-23T02:06:55;11.00;;;11.00;;
9270;SDS011;4673;53.458;9.940;2023-04-23T02:09:21;11.40;;;11.40;;
9270;SDS011;4673;53.458;9.940;2023-04-23T02:11:46;14.13;;;14.10;;
9270;SDS011;4673;53.458;9.940;2023-04-23T02:14:12;15.83;;;15.73;;
9270;SDS011;4673;53.458;9.940;2023-04-23T02:16:38;17.53;;;17.43;;
9270;SDS011;4673;53.458;9.940;2023-04-23T02:19:03;16.60;;;16.50;;
9270;SDS011;4673;53.458;9.940;2023-04-23T02:21:29;19.27;;;19.17;;
9270;SDS011;4673;53.458;9.940;2023-04-23T02:23:55;18.07;;;17.97;;
9270;SDS011;4673;53.458;9.940;2023-04-23T02:26:21;20.37;;;20.27;;
9270;SDS011;4673;53.458;9.940;2023-04-23T02:28:47;20.50;;;20.40;;
9270;SDS011;4673;53.458;9.940;2023-04-23T02:31:13;19.07;;;18.97;;
9270;SDS011;4673;53.458;9.940;2023-04-23T02:33:40;20.37;;;20.27;;
9270;SDS011;4673;53.458;9.940;2023-04-23T02:36:06;21.53;;;21.43;;
9270;SDS011;4673;53.458;9.940;2023-04-23T02:38:34;20.40;;;20.30;;
9270;SDS011;4673;53.458;9.940;2023-04-23T02:41:00;23.73;;;23.53;;
9270;SDS011;4673;53.458;9.940;2023-04-23T02:43:25;20.70;;;20.60;;
9270;SDS011;4673;53.458;9.940;2023-04-23T02:45:51;23.07;;;22.90;;
9270;SDS011;4673;53.458;9.940;2023-04-23T02:48:17;21.77;;;21.67;;
9270;SDS011;4673;53.458;9.940;2023-04-23T02:50:42;20.37;;;20.27;;
9270;SDS011;4673;53.458;9.940;2023-04-23T02:53:08;20.67;;;20.57;;
9270;SDS011;4673;53.458;9.940;2023-04-23T02:55:33;22.37;;;22.27;;
9270;SDS011;4673;53.458;9.940;2023-04-23T02:57:59;21.93;;;21.80;;
9270;SDS011;4673;53.458;9.940;2023-04-23T03:00:25;19.83;;;19.73;;
9270;SDS011;4673;53.458;9.940;2023-04-23T03:02:51;21.00;;;20.90;;
9270;SDS011;4673;53.458;9.940;2023-04-23T03:05:17;21.50;;;21.40;;
9270;SDS011;4673;53.458;9.940;2023-04-23T03:07:43;21.67;;;21.57;;
9270;SDS011;4673;53.458;9.940;2023-04-23T03:10:08;21.20;;;21.10;;
9270;SDS011;4673;53.458;9.940;2023-04-23T03:12:34;21.03;;;20.93;;
9270;SDS011;4673;53.458;9.940;2023-04-23T03:15:00;19.47;;;19.37;;
9270;SDS011;4673;53.458;9.940;2023-04-23T03:17:26;20.73;;;20.63;;
9270;SDS011;4673;53.458;9.940;2023-04-23T03:19:51;21.10;;;21.00;;
9270;SDS011;4673;53.458;9.940;2023-04-23T03:22:17;25.93;;;25.73;;
9270;SDS011;4673;53.458;9.940;2023-04-23T03:24:43;26.80;;;26.60;;
9270;SDS011;4673;53.458;9.940;2023-04-23T03:27:08;26.73;;;26.53;;
9270;SDS011;4673;53.458;9.940;2023-04-23T03:29:34;28.07;;;27.87;;
9270;SDS011;4673;53.458;9.940;2023-04-23T03:32:00;27.00;;;26.80;;
9270;SDS011;4673;53.458;9.940;2023-04-23T03:34:26;28.10;;;27.90;;
9270;SDS011;4673;53.458;9.940;2023-04-23T03:36:51;28.77;;;28.57;;
9270;SDS011;4673;53.458;9.940;2023-04-23T03:39:17;29.67;;;29.47;;
9270;SDS011;4673;53.458;9.940;2023-04-23T03:41:42;27.50;;;27.30;;
9270;SDS011;4673;53.458;9.940;2023-04-23T03:44:08;27.07;;;26.87;;
9270;SDS011;4673;53.458;9.940;2023-04-23T03:46:34;26.00;;;25.80;;
9270;SDS011;4673;53.458;9.940;2023-04-23T03:48:59;25.57;;;25.37;;
9270;SDS011;4673;53.458;9.940;2023-04-23T03:51:25;27.20;;;27.00;;
9270;SDS011;4673;53.458;9.940;2023-04-23T03:53:52;21.63;;;21.53;;
9270;SDS011;4673;53.458;9.940;2023-04-23T03:56:17;22.40;;;22.30;;
9270;SDS011;4673;53.458;9.940;2023-04-23T03:58:43;20.30;;;20.20;;
9270;SDS011;4673;53.458;9.940;2023-04-23T04:01:08;20.13;;;20.03;;
9270;SDS011;4673;53.458;9.940;2023-04-23T04:03:34;19.23;;;19.13;;
9270;SDS011;4673;53.458;9.940;2023-04-23T04:06:00;18.43;;;18.33;;
9270;SDS011;4673;53.458;9.940;2023-04-23T04:08:26;19.97;;;19.87;;
9270;SDS011;4673;53.458;9.940;2023-04-23T04:10:53;17.23;;;17.13;;
9270;SDS011;4673;53.458;9.940;2023-04-23T04:13:19;17.67;;;17.57;;
9270;SDS011;4673;53.458;9.940;2023-04-23T04:15:44;16.93;;;16.83;;
9270;SDS011;4673;53.458;9.940;2023-04-23T04:18:10;16.90;;;16.80;;
9270;SDS011;4673;53.458;9.940;2023-04-23T04:20:36;17.50;;;17.40;;
9270;SDS011;4673;53.458;9.940;2023-04-23T04:23:01;17.13;;;17.03;;
9270;SDS011;4673;53.458;9.940;2023-04-23T04:25:27;15.83;;;15.73;;
9270;SDS011;4673;53.458;9.940;2023-04-23T04:27:54;16.47;;;16.37;;
9270;SDS011;4673;53.458;9.940;2023-04-23T04:30:21;16.17;;;16.07;;
9270;SDS011;4673;53.458;9.940;2023-04-23T04:32:48;15.83;;;15.73;;
9270;SDS011;4673;53.458;9.940;2023-04-23T04:35:14;14.53;;;14.43;;
9270;SDS011;4673;53.458;9.940;2023-04-23T04:37:40;13.87;;;13.80;;
9270;SDS011;4673;53.458;9.940;2023-04-23T04:40:08;14.53;;;14.43;;
9270;SDS011;4673;53.458;9.940;2023-04-23T04:42:35;13.23;;;13.23;;
9270;SDS011;4673;53.458;9.940;2023-04-23T04:45:01;14.40;;;14.30;;
9270;SDS011;4673;53.458;9.940;2023-04-23T04:47:28;12.27;;;12.27;;
9270;SDS011;4673;53.458;9.940;2023-04-23T04:49:54;12.43;;;12.43;;
9270;SDS011;4673;53.458;9.940;2023-04-23T04:52:21;11.43;;;11.43;;
9270;SDS011;4673;53.458;9.940;2023-04-23T04:54:49;10.93;;;10.93;;
9270;SDS011;4673;53.458;9.940;2023-04-23T04:57:15;10.63;;;10.63;;
9270;SDS011;4673;53.458;9.940;2023-04-23T04:59:41;11.13;;;11.13;;
9270;SDS011;4673;53.458;9.940;2023-04-23T05:02:06;10.77;;;10.77;;
9270;SDS011;4673;53.458;9.940;2023-04-23T05:04:32;10.40;;;10.40;;
9270;SDS011;4673;53.458;9.940;2023-04-23T05:06:58;9.73;;;9.73;;
9270;SDS011;4673;53.458;9.940;2023-04-23T05:09:24;9.50;;;9.50;;
9270;SDS011;4673;53.458;9.940;2023-04-23T05:11:50;9.30;;;9.30;;
9270;SDS011;4673;53.458;9.940;2023-04-23T05:14:15;8.50;;;8.50;;
9270;SDS011;4673;53.458;9.940;2023-04-23T05:16:41;9.77;;;9.77;;
9270;SDS011;4673;53.458;9.940;2023-04-23T05:19:07;8.80;;;8.80;;
9270;SDS011;4673;53.458;9.940;2023-04-23T05:21:33;7.20;;;7.20;;
9270;SDS011;4673;53.458;9.940;2023-04-23T05:23:58;7.97;;;7.97;;
9270;SDS011;4673;53.458;9.940;2023-04-23T05:26:24;7.33;;;7.33;;
9270;SDS011;4673;53.458;9.940;2023-04-23T05:28:49;6.80;;;6.80;;
9270;SDS011;4673;53.458;9.940;2023-04-23T05:31:15;7.20;;;7.20;;
9270;SDS011;4673;53.458;9.940;2023-04-23T05:33:41;7.23;;;7.23;;
9270;SDS011;4673;53.458;9.940;2023-04-23T05:36:08;6.70;;;6.70;;
9270;SDS011;4673;53.458;9.940;2023-04-23T05:38:35;6.53;;;6.53;;
9270;SDS011;4673;53.458;9.940;2023-04-23T05:41:00;6.33;;;6.33;;
9270;SDS011;4673;53.458;9.940;2023-04-23T05:43:26;6.70;;;6.70;;
9270;SDS011;4673;53.458;9.940;2023-04-23T05:45:52;6.10;;;6.10;;
9270;SDS011;4673;53.458;9.940;2023-04-23T05:48:17;5.70;;;5.70;;
9270;SDS011;4673;53.458;9.940;2023-04-23T05:50:43;5.77;;;5.77;;
9270;SDS011;4673;53.458;9.940;2023-04-23T05:53:09;4.83;;;4.83;;
9270;SDS011;4673;53.458;9.940;2023-04-23T05:55:35;5.30;;;5.30;;
9270;SDS011;4673;53.458;9.940;2023-04-23T05:58:00;5.67;;;5.67;;
9270;SDS011;4673;53.458;9.940;2023-04-23T06:00:26;5.27;;;5.27;;
9270;SDS011;4673;53.458;9.940;2023-04-23T06:02:52;5.10;;;5.10;;
9270;SDS011;4673;53.458;9.940;2023-04-23T06:05:18;4.70;;;4.70;;
9270;SDS011;4673;53.458;9.940;2023-04-23T06:07:44;4.03;;;4.03;;
9270;SDS011;4673;53.458;9.940;2023-04-23T06:10:10;4.10;;;4.10;;
9270;SDS011;4673;53.458;9.940;2023-04-23T06:12:36;5.10;;;5.10;;
9270;SDS011;4673;53.458;9.940;2023-04-23T06:15:06;5.13;;;5.13;;
9270;SDS011;4673;53.458;9.940;2023-04-23T06:17:33;4.80;;;4.80;;
9270;SDS011;4673;53.458;9.940;2023-04-23T06:19:59;4.13;;;4.13;;
9270;SDS011;4673;53.458;9.940;2023-04-23T06:22:25;4.50;;;4.50;;
9270;SDS011;4673;53.458;9.940;2023-04-23T06:24:50;3.80;;;3.80;;
9270;SDS011;4673;53.458;9.940;2023-04-23T06:27:16;4.10;;;4.10;;
9270;SDS011;4673;53.458;9.940;2023-04-23T06:29:42;3.27;;;3.27;;
9270;SDS011;4673;53.458;9.940;2023-04-23T06:32:08;3.23;;;3.23;;
9270;SDS011;4673;53.458;9.940;2023-04-23T06:34:33;3.17;;;3.17;;
9270;SDS011;4673;53.458;9.940;2023-04-23T06:36:59;3.17;;;3.17;;
9270;SDS011;4673;53.458;9.940;2023-04-23T06:39:25;3.73;;;3.73;;
9270;SDS011;4673;53.458;9.940;2023-04-23T06:41:50;3.57;;;3.57;;
9270;SDS011;4673;53.458;9.940;2023-04-23T06:44:16;3.80;;;3.80;;
9270;SDS011;4673;53.458;9.940;2023-04-23T06:46:42;3.83;;;3.83;;
9270;SDS011;4673;53.458;9.940;2023-04-23T06:49:08;4.50;;;4.50;;
9270;SDS011;4673;53.458;9.940;2023-04-23T06:51:33;4.50;;;4.50;;
9270;SDS011;4673;53.458;9.940;2023-04-23T06:53:59;3.73;;;3.73;;
9270;SDS011;4673;53.458;9.940;2023-04-23T06:56:25;4.33;;;4.33;;
9270;SDS011;4673;53.458;9.940;2023-04-23T06:58:51;4.27;;;4.27;;
9270;SDS011;4673;53.458;9.940;2023-04-23T07:01:17;4.13;;;4.13;;
9270;SDS011;4673;53.458;9.940;2023-04-23T07:03:43;4.13;;;4.13;;
9270;SDS011;4673;53.458;9.940;2023-04-23T07:06:12;4.37;;;4.37;;
9270;SDS011;4673;53.458;9.940;2023-04-23T07:08:42;3.60;;;3.60;;
9270;SDS011;4673;53.458;9.940;2023-04-23T07:11:08;4.17;;;4.17;;
9270;SDS011;4673;53.458;9.940;2023-04-23T07:13:34;3.80;;;3.80;;
9270;SDS011;4673;53.458;9.940;2023-04-23T07:16:00;4.20;;;4.20;;
9270;SDS011;4673;53.458;9.940;2023-04-23T07:18:26;3.73;;;3.73;;
9270;SDS011;4673;53.458;9.940;2023-04-23T07:20:51;3.43;;;3.43;;
9270;SDS011;4673;53.458;9.940;2023-04-23T07:23:17;3.73;;;3.73;;
9270;SDS011;4673;53.458;9.940;2023-04-23T07:25:43;3.30;;;3.30;;
9270;SDS011;4673;53.458;9.940;2023-04-23T07:28:08;4.20;;;4.20;;
9270;SDS011;4673;53.458;9.940;2023-04-23T07:30:34;3.90;;;3.90;;
9270;SDS011;4673;53.458;9.940;2023-04-23T07:33:00;3.90;;;3.90;;
9270;SDS011;4673;53.458;9.940;2023-04-23T07:35:26;3.70;;;3.70;;
9270;SDS011;4673;53.458;9.940;2023-04-23T07:37:52;4.38;;;4.38;;
9270;SDS011;4673;53.458;9.940;2023-04-23T07:40:22;4.75;;;4.75;;
9270;SDS011;4673;53.458;9.940;2023-04-23T07:42:49;3.80;;;3.80;;
9270;SDS011;4673;53.458;9.940;2023-04-23T07:45:15;4.05;;;4.05;;
9270;SDS011;4673;53.458;9.940;2023-04-23T07:47:41;4.10;;;4.10;;
9270;SDS011;4673;53.458;9.940;2023-04-23T07:50:07;3.47;;;3.47;;
9270;SDS011;4673;53.458;9.940;2023-04-23T07:52:33;4.10;;;4.10;;
9270;SDS011;4673;53.458;9.940;2023-04-23T07:55:02;4.20;;;4.20;;
9270;SDS011;4673;53.458;9.940;2023-04-23T07:57:47;3.92;;;3.92;;
9270;SDS011;4673;53.458;9.940;2023-04-23T08:00:24;3.75;;;3.75;;
9270;SDS011;4673;53.458;9.940;2023-04-23T08:03:15;3.70;;;3.70;;
9270;SDS011;4673;53.458;9.940;2023-04-23T08:05:44;3.95;;;3.95;;
9270;SDS011;4673;53.458;9.940;2023-04-23T08:08:12;4.47;;;4.47;;
9270;SDS011;4673;53.458;9.940;2023-04-23T08:10:57;3.95;;;3.95;;
9270;SDS011;4673;53.458;9.940;2023-04-23T08:13:36;4.10;;;4.10;;
9270;SDS011;4673;53.458;9.940;2023-04-23T08:16:25;3.55;;;3.55;;
9270;SDS011;4673;53.458;9.940;2023-04-23T08:19:03;3.92;;;3.92;;
9270;SDS011;4673;53.458;9.940;2023-04-23T08:21:34;4.05;;;4.05;;
9270;SDS011;4673;53.458;9.940;2023-04-23T08:24:05;3.30;;;3.30;;
9270;SDS011;4673;53.458;9.940;2023-04-23T08:30:13;3.97;;;3.97;;
9270;SDS011;4673;53.458;9.940;2023-04-23T08:36:49;3.90;;;3.90;;
9270;SDS011;4673;53.458;9.940;2023-04-23T08:39:29;3.70;;;3.70;;
9270;SDS011;4673;53.458;9.940;2023-04-23T08:42:08;4.28;;;4.28;;
9270;SDS011;4673;53.458;9.940;2023-04-23T08:45:17;3.90;;;3.90;;
9270;SDS011;4673;53.458;9.940;2023-04-23T08:48:09;3.70;;;3.70;;
9270;SDS011;4673;53.458;9.940;2023-04-23T08:53:50;4.15;;;4.15;;
9270;SDS011;4673;53.458;9.940;2023-04-23T08:56:26;3.97;;;3.97;;
9270;SDS011;4673;53.458;9.940;2023-04-23T08:59:02;4.18;;;4.18;;
9270;SDS011;4673;53.458;9.940;2023-04-23T09:01:32;4.25;;;4.25;;
9270;SDS011;4673;53.458;9.940;2023-04-23T09:04:32;4.78;;;4.78;;
9270;SDS011;4673;53.458;9.940;2023-04-23T09:07:18;4.65;;;4.65;;
9270;SDS011;4673;53.458;9.940;2023-04-23T09:09:50;4.40;;;4.40;;
9270;SDS011;4673;53.458;9.940;2023-04-23T09:16:03;4.80;;;4.80;;
9270;SDS011;4673;53.458;9.940;2023-04-23T09:22:01;4.85;;;4.85;;
9270;SDS011;4673;53.458;9.940;2023-04-23T09:27:47;4.32;;;4.32;;
9270;SDS011;4673;53.458;9.940;2023-04-23T09:30:24;5.78;;;5.78;;
9270;SDS011;4673;53.458;9.940;2023-04-23T09:36:35;5.28;;;5.28;;
9270;SDS011;4673;53.458;9.940;2023-04-23T09:39:23;5.18;;;5.18;;
9270;SDS011;4673;53.458;9.940;2023-04-23T09:42:35;5.68;;;5.68;;
9270;SDS011;4673;53.458;9.940;2023-04-23T09:47:49;6.30;;;6.30;;
9270;SDS011;4673;53.458;9.940;2023-04-23T09:51:23;7.07;;;7.07;;
9270;SDS011;4673;53.458;9.940;2023-04-23T10:00:34;7.32;;;7.32;;
9270;SDS011;4673;53.458;9.940;2023-04-23T10:03:28;7.25;;;7.25;;
9270;SDS011;4673;53.458;9.940;2023-04-23T10:05:54;7.57;;;7.57;;
9270;SDS011;4673;53.458;9.940;2023-04-23T10:08:20;7.35;;;7.35;;
9270;SDS011;4673;53.458;9.940;2023-04-23T10:10:46;6.85;;;6.85;;
9270;SDS011;4673;53.458;9.940;2023-04-23T10:13:12;6.93;;;6.93;;
9270;SDS011;4673;53.458;9.940;2023-04-23T10:15:38;6.43;;;6.43;;
9270;SDS011;4673;53.458;9.940;2023-04-23T10:18:03;6.90;;;6.90;;
9270;SDS011;4673;53.458;9.940;2023-04-23T10:20:32;6.88;;;6.88;;
9270;SDS011;4673;53.458;9.940;2023-04-23T10:22:59;7.43;;;7.43;;
9270;SDS011;4673;53.458;9.940;2023-04-23T10:25:25;8.27;;;8.27;;
9270;SDS011;4673;53.458;9.940;2023-04-23T10:27:52;8.68;;;8.68;;
9270;SDS011;4673;53.458;9.940;2023-04-23T10:30:20;8.35;;;8.35;;
9270;SDS011;4673;53.458;9.940;2023-04-23T10:32:47;7.15;;;7.15;;
9270;SDS011;4673;53.458;9.940;2023-04-23T10:35:13;8.73;;;8.73;;
9270;SDS011;4673;53.458;9.940;2023-04-23T10:37:39;7.78;;;7.78;;
9270;SDS011;4673;53.458;9.940;2023-04-23T10:40:07;7.75;;;7.75;;
9270;SDS011;4673;53.458;9.940;2023-04-23T10:42:41;7.80;;;7.80;;
9270;SDS011;4673;53.458;9.940;2023-04-23T10:45:11;7.50;;;7.50;;
9270;SDS011;4673;53.458;9.940;2023-04-23T10:47:37;7.30;;;7.30;;
9270;SDS011;4673;53.458;9.940;2023-04-23T10:50:22;7.78;;;7.78;;
9270;SDS011;4673;53.458;9.940;2023-04-23T10:52:50;8.23;;;8.23;;
9270;SDS011;4673;53.458;9.940;2023-04-23T10:55:27;7.03;;;7.03;;
9270;SDS011;4673;53.458;9.940;2023-04-23T11:00:27;6.38;;;6.38;;
9270;SDS011;4673;53.458;9.940;2023-04-23T11:02:54;6.43;;;6.43;;
9270;SDS011;4673;53.458;9.940;2023-04-23T11:05:23;6.25;;;6.25;;
9270;SDS011;4673;53.458;9.940;2023-04-23T11:08:05;6.28;;;6.28;;
9270;SDS011;4673;53.458;9.940;2023-04-23T11:10:32;5.47;;;5.47;;
9270;SDS011;4673;53.458;9.940;2023-04-23T11:13:18;4.80;;;4.80;;
9270;SDS011;4673;53.458;9.940;2023-04-23T11:15:45;5.55;;;5.55;;
9270;SDS011;4673;53.458;9.940;2023-04-23T11:18:11;5.53;;;5.53;;
9270;SDS011;4673;53.458;9.940;2023-04-23T11:20:36;4.10;;;4.10;;
9270;SDS011;4673;53.458;9.940;2023-04-23T11:23:03;4.22;;;4.22;;
9270;SDS011;4673;53.458;9.940;2023-04-23T11:25:31;4.72;;;4.72;;
9270;SDS011;4673;53.458;9.940;2023-04-23T11:27:57;4.70;;;4.70;;
9270;SDS011;4673;53.458;9.940;2023-04-23T11:30:23;5.03;;;5.03;;
9270;SDS011;4673;53.458;9.940;2023-04-23T11:32:51;4.18;;;4.18;;
9270;SDS011;4673;53.458;9.940;2023-04-23T11:35:22;5.20;;;5.20;;
9270;SDS011;4673;53.458;9.940;2023-04-23T11:37:53;4.28;;;4.28;;
9270;SDS011;4673;53.458;9.940;2023-04-23T11:40:19;3.85;;;3.85;;
9270;SDS011;4673;53.458;9.940;2023-04-23T11:42:48;4.97;;;4.97;;
9270;SDS011;4673;53.458;9.940;2023-04-23T11:45:19;4.57;;;4.57;;
9270;SDS011;4673;53.458;9.940;2023-04-23T11:47:46;4.10;;;4.10;;
9270;SDS011;4673;53.458;9.940;2023-04-23T11:50:21;4.32;;;4.32;;
9270;SDS011;4673;53.458;9.940;2023-04-23T11:52:48;4.28;;;4.28;;
9270;SDS011;4673;53.458;9.940;2023-04-23T11:55:14;5.38;;;5.38;;
9270;SDS011;4673;53.458;9.940;2023-04-23T11:57:41;3.70;;;3.70;;
9270;SDS011;4673;53.458;9.940;2023-04-23T12:05:19;3.33;;;3.33;;
9270;SDS011;4673;53.458;9.940;2023-04-23T12:07:51;3.63;;;3.63;;
9270;SDS011;4673;53.458;9.940;2023-04-23T12:10:21;3.38;;;3.38;;
9270;SDS011;4673;53.458;9.940;2023-04-23T12:12:50;3.25;;;3.25;;
9270;SDS011;4673;53.458;9.940;2023-04-23T12:15:16;3.55;;;3.55;;
9270;SDS011;4673;53.458;9.940;2023-04-23T12:17:46;2.92;;;2.92;;
9270;SDS011;4673;53.458;9.940;2023-04-23T12:20:16;3.42;;;3.42;;
9270;SDS011;4673;53.458;9.940;2023-04-23T12:22:43;3.33;;;3.33;;
9270;SDS011;4673;53.458;9.940;2023-04-23T12:25:09;3.13;;;3.13;;
9270;SDS011;4673;53.458;9.940;2023-04-23T12:27:40;3.22;;;3.22;;
9270;SDS011;4673;53.458;9.940;2023-04-23T12:30:08;3.33;;;3.33;;
9270;SDS011;4673;53.458;9.940;2023-04-23T12:32:35;2.92;;;2.92;;
9270;SDS011;4673;53.458;9.940;2023-04-23T12:35:02;3.22;;;3.22;;
9270;SDS011;4673;53.458;9.940;2023-04-23T12:37:33;5.28;;;5.28;;
9270;SDS011;4673;53.458;9.940;2023-04-23T12:40:00;2.97;;;2.97;;
9270;SDS011;4673;53.458;9.940;2023-04-23T12:42:26;2.60;;;2.60;;
9270;SDS011;4673;53.458;9.940;2023-04-23T12:44:52;2.55;;;2.55;;
9270;SDS011;4673;53.458;9.940;2023-04-23T12:47:20;3.08;;;3.08;;
9270;SDS011;4673;53.458;9.940;2023-04-23T12:49:48;3.30;;;3.30;;
9270;SDS011;4673;53.458;9.940;2023-04-23T12:52:17;2.83;;;2.83;;
9270;SDS011;4673;53.458;9.940;2023-04-23T12:54:42;3.03;;;3.03;;
9270;SDS011;4673;53.458;9.940;2023-04-23T12:57:10;2.42;;;2.42;;
9270;SDS011;4673;53.458;9.940;2023-04-23T12:59:36;2.63;;;2.63;;
9270;SDS011;4673;53.458;9.940;2023-04-23T13:02:02;3.05;;;3.05;;
9270;SDS011;4673;53.458;9.940;2023-04-23T13:04:28;2.30;;;2.30;;
9270;SDS011;4673;53.458;9.940;2023-04-23T13:06:55;2.33;;;2.33;;
9270;SDS011;4673;53.458;9.940;2023-04-23T13:09:21;2.67;;;2.67;;
9270;SDS011;4673;53.458;9.940;2023-04-23T13:11:48;2.45;;;2.45;;
9270;SDS011;4673;53.458;9.940;2023-04-23T13:14:14;2.47;;;2.47;;
9270;SDS011;4673;53.458;9.940;2023-04-23T13:16:41;2.58;;;2.58;;
9270;SDS011;4673;53.458;9.940;2023-04-23T13:19:07;2.20;;;2.20;;
9270;SDS011;4673;53.458;9.940;2023-04-23T13:21:33;2.55;;;2.55;;
9270;SDS011;4673;53.458;9.940;2023-04-23T13:23:59;3.03;;;3.03;;
9270;SDS011;4673;53.458;9.940;2023-04-23T13:26:25;2.90;;;2.90;;
9270;SDS011;4673;53.458;9.940;2023-04-23T13:28:54;2.60;;;2.60;;
9270;SDS011;4673;53.458;9.940;2023-04-23T13:31:20;2.22;;;2.22;;
9270;SDS011;4673;53.458;9.940;2023-04-23T13:33:45;2.75;;;2.75;;
9270;SDS011;4673;53.458;9.940;2023-04-23T13:36:11;2.85;;;2.85;;
9270;SDS011;4673;53.458;9.940;2023-04-23T13:38:36;2.13;;;2.13;;
9270;SDS011;4673;53.458;9.940;2023-04-23T13:41:02;1.80;;;1.80;;
9270;SDS011;4673;53.458;9.940;2023-04-23T13:43:28;3.03;;;3.03;;
9270;SDS011;4673;53.458;9.940;2023-04-23T13:45:54;2.70;;;2.70;;
9270;SDS011;4673;53.458;9.940;2023-04-23T13:48:20;2.42;;;2.42;;
9270;SDS011;4673;53.458;9.940;2023-04-23T13:50:45;1.92;;;1.92;;
9270;SDS011;4673;53.458;9.940;2023-04-23T13:53:11;2.60;;;2.60;;
9270;SDS011;4673;53.458;9.940;2023-04-23T13:55:37;2.75;;;2.75;;
9270;SDS011;4673;53.458;9.940;2023-04-23T13:58:03;2.15;;;2.15;;
9270;SDS011;4673;53.458;9.940;2023-04-23T14:00:30;2.72;;;2.72;;
9270;SDS011;4673;53.458;9.940;2023-04-23T14:02:56;2.22;;;2.22;;
9270;SDS011;4673;53.458;9.940;2023-04-23T14:05:22;2.65;;;2.65;;
9270;SDS011;4673;53.458;9.940;2023-04-23T14:07:47;2.35;;;2.35;;
9270;SDS011;4673;53.458;9.940;2023-04-23T14:10:13;2.13;;;2.13;;
9270;SDS011;4673;53.458;9.940;2023-04-23T14:12:39;2.20;;;2.20;;
9270;SDS011;4673;53.458;9.940;2023-04-23T14:15:08;2.13;;;2.13;;
9270;SDS011;4673;53.458;9.940;2023-04-23T14:17:34;2.25;;;2.25;;
9270;SDS011;4673;53.458;9.940;2023-04-23T14:20:01;2.72;;;2.72;;
9270;SDS011;4673;53.458;9.940;2023-04-23T14:22:27;2.72;;;2.72;;
9270;SDS011;4673;53.458;9.940;2023-04-23T14:25:00;3.10;;;3.10;;
9270;SDS011;4673;53.458;9.940;2023-04-23T14:27:31;3.10;;;3.10;;
9270;SDS011;4673;53.458;9.940;2023-04-23T14:30:03;3.05;;;3.05;;
9270;SDS011;4673;53.458;9.940;2023-04-23T14:32:29;3.05;;;3.05;;
9270;SDS011;4673;53.458;9.940;2023-04-23T14:34:55;3.00;;;3.00;;
9270;SDS011;4673;53.458;9.940;2023-04-23T14:37:21;3.17;;;3.17;;
9270;SDS011;4673;53.458;9.940;2023-04-23T14:39:47;3.00;;;3.00;;
9270;SDS011;4673;53.458;9.940;2023-04-23T14:42:12;2.70;;;2.70;;
9270;SDS011;4673;53.458;9.940;2023-04-23T14:44:38;2.22;;;2.22;;
9270;SDS011;4673;53.458;9.940;2023-04-23T14:47:04;2.20;;;2.20;;
9270;SDS011;4673;53.458;9.940;2023-04-23T14:49:32;1.83;;;1.83;;
9270;SDS011;4673;53.458;9.940;2023-04-23T14:51:57;1.58;;;1.58;;
9270;SDS011;4673;53.458;9.940;2023-04-23T14:54:23;1.80;;;1.80;;
9270;SDS011;4673;53.458;9.940;2023-04-23T14:56:49;1.40;;;1.40;;
9270;SDS011;4673;53.458;9.940;2023-04-23T14:59:15;1.67;;;1.67;;
9270;SDS011;4673;53.458;9.940;2023-04-23T15:01:41;1.50;;;1.50;;
9270;SDS011;4673;53.458;9.940;2023-04-23T15:04:11;1.20;;;1.20;;
9270;SDS011;4673;53.458;9.940;2023-04-23T15:06:37;1.50;;;1.50;;
9270;SDS011;4673;53.458;9.940;2023-04-23T15:09:04;1.75;;;1.75;;
9270;SDS011;4673;53.458;9.940;2023-04-23T15:11:30;1.50;;;1.50;;
9270;SDS011;4673;53.458;9.940;2023-04-23T15:14:06;1.67;;;1.67;;
9270;SDS011;4673;53.458;9.940;2023-04-23T15:16:33;1.55;;;1.55;;
9270;SDS011;4673;53.458;9.940;2023-04-23T15:19:04;2.03;;;2.03;;
9270;SDS011;4673;53.458;9.940;2023-04-23T15:21:30;1.65;;;1.65;;
9270;SDS011;4673;53.458;9.940;2023-04-23T15:23:56;1.80;;;1.80;;
9270;SDS011;4673;53.458;9.940;2023-04-23T15:26:22;1.63;;;1.63;;
9270;SDS011;4673;53.458;9.940;2023-04-23T15:28:50;1.50;;;1.50;;
9270;SDS011;4673;53.458;9.940;2023-04-23T15:31:15;1.50;;;1.50;;
9270;SDS011;4673;53.458;9.940;2023-04-23T15:33:41;1.63;;;1.63;;
9270;SDS011;4673;53.458;9.940;2023-04-23T15:36:07;1.80;;;1.80;;
9270;SDS011;4673;53.458;9.940;2023-04-23T15:38:33;1.50;;;1.50;;
9270;SDS011;4673;53.458;9.940;2023-04-23T15:40:58;1.40;;;1.40;;
9270;SDS011;4673;53.458;9.940;2023-04-23T15:43:24;1.65;;;1.65;;
9270;SDS011;4673;53.458;9.940;2023-04-23T15:45:50;1.60;;;1.60;;
9270;SDS011;4673;53.458;9.940;2023-04-23T15:48:19;1.30;;;1.30;;
9270;SDS011;4673;53.458;9.940;2023-04-23T15:50:45;1.50;;;1.50;;
9270;SDS011;4673;53.458;9.940;2023-04-23T15:53:11;1.92;;;1.92;;
9270;SDS011;4673;53.458;9.940;2023-04-23T15:55:37;1.50;;;1.50;;
9270;SDS011;4673;53.458;9.940;2023-04-23T15:58:04;2.00;;;2.00;;